createdAt,value
2019-06-10T00:03:17.347Z,98445.60
2019-06-10T00:08:23.254Z,98443.56
2019-06-10T00:13:28.685Z,98436.52
2019-06-10T00:18:41.841Z,98439.19
2019-06-10T00:23:41.370Z,98439.02
2019-06-10T00:28:48.297Z,98435.80
2019-06-10T00:33:53.799Z,98441.03
2019-06-10T00:39:04.033Z,98433.16
2019-06-10T00:44:12.566Z,98415.75
2019-06-10T00:49:16.583Z,98415.98
2019-06-10T00:54:22.121Z,98418.05
2019-06-10T00:59:27.391Z,98409.84
2019-06-10T01:04:32.864Z,98414.95
2019-06-10T01:09:38.195Z,98413.80
2019-06-10T01:14:43.719Z,98400.34
2019-06-10T01:19:50.913Z,98416.88
2019-06-10T01:24:56.537Z,98411.02
2019-06-10T01:30:09.622Z,98400.55
2019-06-10T01:35:11.520Z,98388.26
2019-06-10T01:40:17.685Z,98378.56
2019-06-10T01:45:23.446Z,98361.39
2019-06-10T01:50:31.070Z,98370.17
2019-06-10T01:55:35.937Z,98364.84
2019-06-10T02:01:06.337Z,98360.63
2019-06-10T02:06:16.031Z,98341.88
2019-06-10T02:11:23.247Z,98338.03
2019-06-10T02:16:26.726Z,98351.38
2019-06-10T02:21:31.970Z,98351.72
2019-06-10T02:26:37.688Z,98342.14
2019-06-10T02:31:43.713Z,98358.45
2019-06-10T02:36:49.137Z,98359.64
2019-06-10T02:41:57.541Z,98349.08
2019-06-10T02:47:03.564Z,98352.11
2019-06-10T02:52:20.053Z,98366.12
2019-06-10T02:57:32.989Z,98356.36
2019-06-10T03:02:36.225Z,98342.91
2019-06-10T03:07:39.405Z,98347.83
2019-06-10T03:12:44.718Z,98345.10
2019-06-10T03:17:52.133Z,98343.43
2019-06-10T03:22:57.093Z,98338.73
2019-06-10T03:28:03.083Z,98330.67
2019-06-10T03:33:08.435Z,98330.69
2019-06-10T03:38:14.090Z,98330.34
2019-06-10T03:43:19.427Z,98332.84
2019-06-10T03:48:26.769Z,98339.25
2019-06-10T03:53:33.624Z,98353.85
2019-06-10T03:58:39.842Z,98357.22
2019-06-10T04:03:45.140Z,98347.77
2019-06-10T04:08:52.213Z,98338.38
2019-06-10T04:13:57.379Z,98327.95
2019-06-10T04:19:02.828Z,98342.58
2019-06-10T04:24:09.154Z,98328.30
2019-06-10T04:29:14.466Z,98310.73
2019-06-10T04:34:20.480Z,98316.41
2019-06-10T04:39:28.043Z,98319.78
2019-06-10T04:44:34.276Z,98305.64
2019-06-10T04:49:39.664Z,98320.92
2019-06-10T04:54:44.915Z,98323.75
2019-06-10T04:59:50.161Z,98310.56
2019-06-10T05:04:55.701Z,98301.28
2019-06-10T05:10:03.209Z,98316.80
2019-06-10T05:15:08.661Z,98326.42
2019-06-10T05:20:14.173Z,98331.20
2019-06-10T05:25:20.413Z,98341.06
2019-06-10T05:30:28.202Z,98333.63
2019-06-10T05:35:34.705Z,98328.91
2019-06-10T05:40:40.028Z,98333.98
2019-06-10T05:45:45.275Z,98343.66
2019-06-10T05:51:00.166Z,98353.98
2019-06-10T05:55:58.247Z,98361.55
2019-06-10T06:01:03.548Z,98344.41
2019-06-10T06:06:08.782Z,98352.91
2019-06-10T06:11:14.309Z,98360.13
2019-06-10T06:16:19.606Z,98355.12
2019-06-10T06:21:31.482Z,98356.95
2019-06-10T06:26:37.924Z,98351.37
2019-06-10T06:31:42.966Z,98340.25
2019-06-10T06:36:48.198Z,98341.77
2019-06-10T06:41:53.893Z,98336.66
2019-06-10T06:46:59.217Z,98333.05
2019-06-10T06:52:04.586Z,98330.81
2019-06-10T06:57:10.027Z,98329.42
2019-06-10T07:02:16.239Z,98340.86
2019-06-10T07:07:22.438Z,98334.98
2019-06-10T07:12:31.367Z,98341.77
2019-06-10T07:17:39.512Z,98337.09
2019-06-10T07:22:46.579Z,98339.59
2019-06-10T07:27:52.726Z,98313.19
2019-06-10T07:32:58.297Z,98313.52
2019-06-10T07:38:03.676Z,98314.27
2019-06-10T07:43:08.954Z,98309.67
2019-06-10T07:48:14.453Z,98304.23
2019-06-10T07:53:22.110Z,98313.46
2019-06-10T07:58:28.869Z,98296.19
2019-06-10T08:03:35.299Z,98288.77
2019-06-10T08:08:45.022Z,98281.86
2019-06-10T08:13:48.728Z,98273.52
2019-06-10T08:19:21.006Z,98275.44
2019-06-10T08:24:03.454Z,98260.08
2019-06-10T08:29:08.768Z,98273.72
2019-06-10T08:34:14.757Z,98276.63
2019-06-10T08:39:22.501Z,98283.91
2019-06-10T08:44:27.299Z,98280.61
2019-06-10T08:49:33.049Z,98258.72
2019-06-10T08:54:42.798Z,98271.58
2019-06-10T08:59:49.048Z,98276.64
2019-06-10T09:04:54.908Z,98269.81
2019-06-10T09:10:02.794Z,98271.09
2019-06-10T09:15:07.688Z,98274.82
2019-06-10T09:20:14.541Z,98266.53
2019-06-10T09:25:22.567Z,98250.55
2019-06-10T09:30:28.293Z,98259.16
2019-06-10T09:35:33.971Z,98257.42
2019-06-10T09:40:59.930Z,98245.92
2019-06-10T09:45:58.779Z,98250.83
2019-06-10T09:51:04.200Z,98235.50
2019-06-10T09:56:09.618Z,98240.17
2019-06-10T10:01:15.109Z,98223.08
2019-06-10T10:06:20.435Z,98214.17
2019-06-10T10:11:28.446Z,98217.53
2019-06-10T10:16:34.058Z,98206.16
2019-06-10T10:21:46.919Z,98217.89
2019-06-10T10:26:51.275Z,98188.81
2019-06-10T10:31:56.430Z,98195.56
2019-06-10T10:37:02.886Z,98176.26
2019-06-10T10:42:08.690Z,98176.05
2019-06-10T10:47:14.070Z,98185.62
2019-06-10T10:52:22.355Z,98173.55
2019-06-10T10:57:27.112Z,98174.05
2019-06-10T11:02:32.556Z,98161.05
2019-06-10T11:07:38.538Z,98136.19
2019-06-10T11:12:46.979Z,98128.11
2019-06-10T11:17:56.342Z,98130.95
2019-06-10T11:23:02.935Z,98117.10
2019-06-10T11:28:08.139Z,98117.67
2019-06-10T11:33:13.544Z,98111.77
2019-06-10T11:38:18.945Z,98118.53
2019-06-10T11:43:24.577Z,98109.16
2019-06-10T11:48:32.562Z,98117.70
2019-06-10T11:53:37.121Z,98106.27
2019-06-10T11:58:43.617Z,98110.91
2019-06-10T12:03:49.033Z,98103.71
2019-06-10T12:08:58.320Z,98091.08
2019-06-10T12:14:04.376Z,98087.13
2019-06-10T12:19:08.387Z,98079.06
2019-06-10T12:24:13.818Z,98071.91
2019-06-10T12:29:19.377Z,98064.33
2019-06-10T12:34:24.939Z,98051.52
2019-06-10T12:39:30.351Z,98057.83
2019-06-10T12:44:35.690Z,98062.95
2019-06-10T12:49:42.796Z,98057.41
2019-06-10T12:54:48.171Z,98060.83
2019-06-10T12:59:54.093Z,98064.64
2019-06-10T13:04:59.704Z,98051.13
2019-06-10T13:10:06.526Z,98042.85
2019-06-10T13:15:12.890Z,98043.42
2019-06-10T13:20:18.245Z,98054.29
2019-06-10T13:25:23.833Z,98047.20
2019-06-10T13:30:29.119Z,98038.70
2019-06-10T13:35:34.702Z,98035.98
2019-06-10T13:40:40.057Z,98034.52
2019-06-10T13:45:45.866Z,98036.59
2019-06-10T13:50:52.882Z,98045.09
2019-06-10T13:56:21.987Z,98048.36
2019-06-10T14:01:11.578Z,98040.50
2019-06-10T14:06:32.328Z,98027.48
2019-06-10T14:11:22.061Z,98032.86
2019-06-10T14:16:27.121Z,98028.08
2019-06-10T14:21:33.150Z,98019.02
2019-06-10T14:26:44.743Z,98021.91
2019-06-10T14:31:47.798Z,98014.91
2019-06-10T14:36:52.660Z,98017.41
2019-06-10T14:41:59.424Z,98013.78
2019-06-10T14:47:04.743Z,98017.91
2019-06-10T14:52:13.599Z,98016.33
2019-06-10T14:57:17.209Z,98019.31
2019-06-10T15:02:23.548Z,98015.66
2019-06-10T15:07:29.025Z,98006.41
2019-06-10T15:12:34.253Z,98009.55
2019-06-10T15:17:39.518Z,98006.07
2019-06-10T15:22:44.895Z,98000.53
2019-06-10T15:27:52.628Z,97974.30
2019-06-10T15:32:57.172Z,97967.94
2019-06-10T15:38:04.110Z,97974.17
2019-06-10T15:43:09.729Z,97971.82
2019-06-10T15:48:18.257Z,97968.53
2019-06-10T15:53:25.873Z,97963.12
2019-06-10T15:58:32.120Z,97980.20
2019-06-10T16:03:38.597Z,97996.70
2019-06-10T16:08:43.970Z,98002.98
2019-06-10T16:13:49.541Z,98017.17
2019-06-10T16:18:54.937Z,98027.91
2019-06-10T16:24:02.585Z,98032.94
2019-06-10T16:29:07.332Z,98037.89
2019-06-10T16:34:14.696Z,98033.70
2019-06-10T16:39:21.748Z,98032.73
2019-06-10T16:44:28.293Z,98030.06
2019-06-10T16:49:33.756Z,98014.48
2019-06-10T16:54:39.099Z,98013.82
2019-06-10T16:59:44.497Z,98017.53
2019-06-10T17:04:52.507Z,98017.53
2019-06-10T17:09:57.595Z,98006.49
2019-06-10T17:15:03.554Z,98021.02
2019-06-10T17:20:09.252Z,98024.75
2019-06-10T17:25:14.582Z,98021.33
2019-06-10T17:30:22.391Z,98021.95
2019-06-10T17:35:28.606Z,98005.79
2019-06-10T17:40:34.377Z,98008.92
2019-06-10T17:45:42.070Z,97987.64
2019-06-10T17:50:46.865Z,97997.77
2019-06-10T17:55:52.234Z,98009.05
2019-06-10T18:00:57.744Z,98020.41
2019-06-10T18:06:03.058Z,98016.86
2019-06-10T18:11:09.412Z,98020.04
2019-06-10T18:16:14.837Z,98034.73
2019-06-10T18:21:22.378Z,98032.23
2019-06-10T18:26:28.871Z,98022.70
2019-06-10T18:31:35.695Z,98020.74
2019-06-10T18:36:42.724Z,98016.58
2019-06-10T18:41:48.240Z,98000.30
2019-06-10T18:46:53.518Z,98007.70
2019-06-10T18:51:58.847Z,98028.92
2019-06-10T18:57:04.141Z,98041.04
2019-06-10T19:02:09.535Z,98019.12
2019-06-10T19:07:16.547Z,98011.46
2019-06-10T19:12:22.418Z,98014.63
2019-06-10T19:17:27.789Z,98012.19
2019-06-10T19:22:35.931Z,98010.06
2019-06-10T19:27:43.957Z,97999.29
2019-06-10T19:32:47.656Z,97991.08
2019-06-10T19:37:53.256Z,97995.45
2019-06-10T19:42:58.858Z,98006.09
2019-06-10T19:48:04.940Z,98030.54
2019-06-10T19:53:10.298Z,98044.80
2019-06-10T19:58:16.554Z,98041.27
2019-06-10T20:03:22.378Z,98037.07
2019-06-10T20:08:28.633Z,98037.22
2019-06-10T20:13:34.392Z,98037.52
2019-06-10T20:18:40.486Z,98044.55
2019-06-10T20:23:47.744Z,98047.05
2019-06-10T20:28:55.476Z,98041.48
2019-06-10T20:34:02.681Z,98037.82
2019-06-10T20:39:09.764Z,98034.00
2019-06-10T20:44:15.104Z,98030.34
2019-06-10T20:49:22.480Z,98025.59
2019-06-10T20:54:28.045Z,98024.31
2019-06-10T20:59:33.383Z,98030.73
2019-06-10T21:04:39.230Z,98025.67
2019-06-10T21:09:47.114Z,98010.06
2019-06-10T21:14:53.181Z,98018.98
2019-06-10T21:19:58.554Z,98019.45
2019-06-10T21:25:04.018Z,98014.30
2019-06-10T21:30:11.704Z,98000.04
2019-06-10T21:35:18.172Z,97985.44
2019-06-10T21:40:24.152Z,97991.76
2019-06-10T21:45:32.292Z,97984.05
2019-06-10T21:50:36.745Z,97979.85
2019-06-10T21:55:44.007Z,97974.52
2019-06-10T22:01:00.850Z,97975.29
2019-06-10T22:05:58.282Z,97992.77
2019-06-10T22:11:04.737Z,97991.73
2019-06-10T22:16:10.776Z,97995.36
2019-06-10T22:21:18.087Z,97987.83
2019-06-10T22:26:23.757Z,97993.48
2019-06-10T22:31:32.619Z,97994.02
2019-06-10T22:36:38.041Z,97992.16
2019-06-10T22:41:43.901Z,97987.15
2019-06-10T22:46:51.907Z,97996.53
2019-06-10T22:52:00.032Z,98011.05
2019-06-10T22:57:04.364Z,98020.17
2019-06-10T23:02:09.951Z,98011.61
2019-06-10T23:07:15.804Z,98024.91
2019-06-10T23:12:21.789Z,98024.56
2019-06-10T23:17:27.033Z,98020.52
2019-06-10T23:22:33.493Z,98027.47
2019-06-10T23:27:41.044Z,98022.89
2019-06-10T23:32:47.237Z,98026.45
2019-06-10T23:37:55.042Z,98042.59
2019-06-10T23:43:01.654Z,98049.55
2019-06-10T23:48:07.134Z,98054.55
2019-06-10T23:53:13.356Z,98065.66
2019-06-10T23:58:21.926Z,98067.28
